Time;durP1;ratioP1;P1;durP2;ratioP2;P2;SDS_P1;SDS_P2;PMS_P1;PMS_P2;Temp;Humidity;BMP_temperature;BMP_pressure;BME280_temperature;BME280_humidity;BME280_pressure;Samples;Min_cycle;Max_cycle;Signal;HPM_P1;HPM_P2
2023/04/16 00:01:02;;;;;;;3.58;1.33;;;;;;;17.99;53.04;98370.94;5015975;28;20091;-80
2023/04/16 00:03:27;;;;;;;8.18;1.50;;;;;;;17.98;53.22;98367.47;5033638;28;20026;-80
2023/04/16 00:05:54;;;;;;;7.00;1.63;;;;;;;18.04;53.93;98380.00;5012237;28;20046;-80
2023/04/16 00:08:23;;;;;;;5.93;1.70;;;;;;;18.02;53.53;98376.69;4996319;28;20405;-81
2023/04/16 00:10:49;;;;;;;8.95;1.80;;;;;;;18.01;53.84;98375.06;5012388;28;20137;-80
2023/04/16 00:13:14;;;;;;;9.07;1.90;;;;;;;18.05;54.16;98380.81;5012501;28;20397;-78
2023/04/16 00:15:39;;;;;;;5.95;1.77;;;;;;;18.03;53.89;98370.41;4996253;28;20066;-78
2023/04/16 00:18:05;;;;;;;7.93;1.75;;;;;;;18.03;54.05;98374.88;4996125;28;20030;-82
2023/04/16 00:20:30;;;;;;;7.47;1.50;;;;;;;18.03;54.17;98378.34;4996076;28;20041;-81
2023/04/16 00:22:56;;;;;;;5.47;1.70;;;;;;;18.06;54.40;98378.00;5013825;28;20026;-77
2023/04/16 00:25:22;;;;;;;8.73;1.90;;;;;;;18.08;54.22;98372.53;5013300;28;20469;-78
2023/04/16 00:27:47;;;;;;;9.45;1.85;;;;;;;18.05;53.66;98375.53;4996164;28;20087;-78
2023/04/16 00:30:13;;;;;;;9.63;2.33;;;;;;;18.04;53.90;98377.34;5012092;28;20034;-77
2023/04/16 00:32:38;;;;;;;10.00;1.85;;;;;;;18.03;53.91;98375.69;4995379;28;20137;-76
2023/04/16 00:35:04;;;;;;;10.10;1.67;;;;;;;18.05;54.15;98372.88;4975629;28;20038;-76
2023/04/16 00:37:30;;;;;;;9.35;1.90;;;;;;;18.04;53.95;98374.72;4992543;28;20018;-76
2023/04/16 00:39:55;;;;;;;7.10;1.85;;;;;;;18.06;53.96;98382.47;4976099;28;20042;-76
2023/04/16 00:42:21;;;;;;;5.82;1.83;;;;;;;18.05;54.35;98381.63;4992628;28;20033;-76
2023/04/16 00:44:46;;;;;;;7.18;1.65;;;;;;;18.04;53.79;98380.00;4976029;28;20042;-75
2023/04/16 00:47:12;;;;;;;6.43;1.85;;;;;;;18.01;53.63;98377.69;4991832;28;20073;-75
2023/04/16 00:49:37;;;;;;;7.93;1.85;;;;;;;18.00;53.93;98375.22;4992152;28;20054;-78
2023/04/16 00:52:03;;;;;;;6.57;1.70;;;;;;;17.99;54.71;98376.22;4960169;28;20092;-76
2023/04/16 00:54:28;;;;;;;5.72;1.98;;;;;;;18.03;55.25;98377.53;4959802;28;20030;-77
2023/04/16 00:56:54;;;;;;;7.97;1.80;;;;;;;18.02;54.97;98375.88;4975918;28;20035;-76
2023/04/16 00:59:20;;;;;;;7.72;1.73;;;;;;;18.04;55.39;98382.63;4992285;28;20045;-80
2023/04/16 01:01:45;;;;;;;6.78;1.70;;;;;;;18.03;55.34;98380.97;4993212;28;20034;-74
2023/04/16 01:04:11;;;;;;;9.95;2.05;;;;;;;18.02;55.05;98379.31;4991353;28;20092;-78
2023/04/16 01:06:36;;;;;;;11.90;2.60;;;;;;;18.02;55.17;98378.50;4975476;28;20057;-78
2023/04/16 01:09:02;;;;;;;7.05;1.90;;;;;;;17.99;54.98;98376.22;4975783;28;20434;-77
2023/04/16 01:11:29;;;;;;;5.88;1.77;;;;;;;17.97;55.58;98370.28;4991848;28;20047;-77
2023/04/16 01:13:54;;;;;;;6.10;1.75;;;;;;;18.00;55.68;98376.03;4976027;28;20034;-76
2023/04/16 01:16:20;;;;;;;4.78;1.90;;;;;;;17.99;55.50;98373.56;4993050;28;20027;-84
2023/04/16 01:18:45;;;;;;;12.07;1.90;;;;;;;17.97;56.84;98365.00;4991794;28;20030;-83
2023/04/16 01:21:11;;;;;;;12.43;1.92;;;;;;;17.99;56.30;98373.56;4992175;28;20042;-77
2023/04/16 01:23:36;;;;;;;9.15;2.15;;;;;;;18.00;56.26;98369.94;4974963;28;20049;-77
2023/04/16 01:26:02;;;;;;;8.30;2.35;;;;;;;18.00;56.59;98372.59;4992042;28;20398;-78
2023/04/16 01:28:27;;;;;;;9.15;1.92;;;;;;;17.96;56.13;98363.34;4974773;28;20042;-77
2023/04/16 01:30:52;;;;;;;8.48;2.20;;;;;;;17.98;56.37;98367.47;4975543;28;20069;-75
2023/04/16 01:33:18;;;;;;;9.73;2.00;;;;;;;17.98;56.46;98369.28;4975476;28;20049;-76
2023/04/16 01:35:44;;;;;;;8.18;2.05;;;;;;;17.97;56.57;98365.81;5009588;28;20026;-77
2023/04/16 01:38:09;;;;;;;9.45;2.38;;;;;;;17.96;56.32;98366.81;5010800;28;20034;-76
2023/04/16 01:40:36;;;;;;;9.43;2.20;;;;;;;17.95;55.95;98367.81;5011148;28;20096;-75
2023/04/16 01:43:01;;;;;;;7.45;2.20;;;;;;;17.93;56.08;98361.06;4994950;28;20030;-76
2023/04/16 01:45:27;;;;;;;9.52;2.42;;;;;;;17.96;56.43;98368.63;4994658;28;20033;-75
2023/04/16 01:47:52;;;;;;;12.73;2.20;;;;;;;17.96;56.61;98366.81;4978240;28;20485;-76
2023/04/16 01:50:18;;;;;;;7.47;2.00;;;;;;;17.93;56.68;98359.22;4994485;28;20117;-76
2023/04/16 01:52:44;;;;;;;7.63;2.25;;;;;;;17.93;56.33;98359.22;4994214;28;20038;-75
2023/04/16 01:55:10;;;;;;;5.95;1.92;;;;;;;17.90;56.52;98357.78;4994949;28;20034;-76
2023/04/16 01:57:35;;;;;;;9.98;2.42;;;;;;;17.93;56.37;98363.69;4994739;28;20076;-76
2023/04/16 02:00:02;;;;;;;7.57;1.92;;;;;;;17.88;56.15;98356.28;4978365;28;20497;-77
2023/04/16 02:02:27;;;;;;;11.90;2.15;;;;;;;17.84;56.39;98349.69;4978631;28;20044;-84
2023/04/16 02:04:53;;;;;;;11.55;2.28;;;;;;;17.83;56.78;98348.88;4997251;28;20061;-83
2023/04/16 02:07:19;;;;;;;9.45;2.15;;;;;;;17.86;57.40;98351.16;5031957;28;20042;-80
2023/04/16 02:09:44;;;;;;;8.82;2.78;;;;;;;17.87;57.28;98359.91;5013931;28;20080;-80
2023/04/16 02:12:12;;;;;;;9.48;2.30;;;;;;;17.86;57.36;98356.44;4997067;28;20107;-77
2023/04/16 02:14:38;;;;;;;5.82;2.10;;;;;;;17.88;57.60;98358.94;5013747;28;20042;-75
2023/04/16 02:17:03;;;;;;;9.27;2.33;;;;;;;17.88;57.83;98353.66;4997556;28;20345;-76
2023/04/16 02:19:29;;;;;;;10.13;2.60;;;;;;;17.89;58.17;98360.59;5014137;28;20033;-76
2023/04/16 02:21:54;;;;;;;10.45;2.85;;;;;;;17.88;57.89;98362.41;4997224;28;20112;-76
2023/04/16 02:24:20;;;;;;;9.30;2.50;;;;;;;17.87;58.13;98354.66;4997751;28;20480;-76
2023/04/16 02:26:46;;;;;;;7.70;2.30;;;;;;;17.87;58.13;98355.44;4998032;28;20029;-76
2023/04/16 02:29:11;;;;;;;8.82;3.13;;;;;;;17.88;57.68;98353.66;4997686;28;20035;-76
2023/04/16 02:31:37;;;;;;;12.70;2.42;;;;;;;17.86;58.02;98350.34;4997394;28;20052;-77
2023/04/16 02:34:03;;;;;;;8.55;2.63;;;;;;;17.89;58.28;98352.66;4996942;28;20033;-79
2023/04/16 02:36:28;;;;;;;8.57;2.25;;;;;;;17.89;58.51;98358.75;4997140;28;20091;-74
2023/04/16 02:38:54;;;;;;;11.52;2.60;;;;;;;17.86;58.21;98348.53;4981183;28;20099;-74
2023/04/16 02:41:19;;;;;;;8.63;2.58;;;;;;;17.88;58.14;98349.22;4997696;28;20113;-78
2023/04/16 02:43:45;;;;;;;7.60;2.47;;;;;;;17.83;58.32;98338.31;4998187;28;20033;-78
2023/04/16 02:46:10;;;;;;;8.70;2.75;;;;;;;17.87;58.40;98349.38;4997500;28;20103;-78
2023/04/16 02:48:36;;;;;;;7.60;2.30;;;;;;;17.86;58.50;98359.06;4996948;28;20042;-68
2023/04/16 02:51:01;;;;;;;8.13;2.35;;;;;;;17.84;58.20;98362.91;5015506;28;20037;-67
2023/04/16 02:53:27;;;;;;;10.57;2.58;;;;;;;17.81;58.44;98356.16;5000801;28;20095;-68
2023/04/16 02:55:53;;;;;;;11.70;2.67;;;;;;;17.77;58.04;98349.56;5017246;28;20404;-67
2023/04/16 02:58:23;;;;;;;6.47;2.35;;;;;;;17.73;58.28;98348.28;5000053;28;20171;-67
2023/04/16 03:00:49;;;;;;;9.05;2.30;;;;;;;17.74;58.17;98355.16;5000585;28;20029;-68
2023/04/16 03:03:14;;;;;;;7.20;2.15;;;;;;;17.74;58.72;98357.81;5000978;28;20025;-68
2023/04/16 03:05:40;;;;;;;11.38;2.70;;;;;;;17.71;58.95;98359.00;5016873;28;20496;-68
2023/04/16 03:08:05;;;;;;;9.10;2.72;;;;;;;17.69;58.49;98360.97;5000449;28;20045;-68
2023/04/16 03:10:31;;;;;;;7.20;2.38;;;;;;;17.68;58.81;98361.16;5000698;28;20037;-68
2023/04/16 03:12:57;;;;;;;10.10;2.67;;;;;;;17.64;58.88;98365.94;5017012;28;20038;-69
2023/04/16 03:15:22;;;;;;;9.18;2.92;;;;;;;17.63;58.69;98364.31;5016804;28;20033;-69
2023/04/16 03:17:48;;;;;;;9.82;2.70;;;;;;;17.62;58.82;98364.50;4999979;28;20037;-69
2023/04/16 03:20:15;;;;;;;8.25;2.70;;;;;;;17.60;59.11;98367.28;5034528;28;20029;-68
2023/04/16 03:22:41;;;;;;;13.52;2.92;;;;;;;17.57;59.17;98367.63;5000566;28;20120;-68
2023/04/16 03:25:07;;;;;;;11.90;2.72;;;;;;;17.53;59.50;98364.50;5000570;28;20135;-68
2023/04/16 03:27:32;;;;;;;11.05;3.10;;;;;;;17.51;59.33;98363.84;5034332;28;20026;-69
2023/04/16 03:29:58;;;;;;;10.15;2.70;;;;;;;17.49;59.69;98365.84;5016547;28;20029;-69
2023/04/16 03:32:23;;;;;;;10.57;2.80;;;;;;;17.49;59.50;98370.28;5017223;28;20065;-68
2023/04/16 03:34:49;;;;;;;10.45;3.00;;;;;;;17.46;59.18;98371.47;4980307;28;20025;-69
2023/04/16 03:37:15;;;;;;;12.43;3.08;;;;;;;17.45;59.17;98377.72;4996857;28;20033;-68
2023/04/16 03:39:40;;;;;;;11.15;2.88;;;;;;;17.46;59.08;98378.56;4980843;28;20026;-69
2023/04/16 03:42:06;;;;;;;11.07;2.63;;;;;;;17.43;59.29;98378.91;4980411;28;20437;-69
2023/04/16 03:44:31;;;;;;;9.00;3.67;;;;;;;17.44;59.09;98389.28;4980389;28;20037;-69
2023/04/16 03:46:57;;;;;;;6.88;2.55;;;;;;;17.41;58.52;98386.16;5013688;28;20465;-68
2023/04/16 03:49:22;;;;;;;9.18;2.80;;;;;;;17.43;58.72;98392.91;4964350;28;20496;-68
2023/04/16 03:51:48;;;;;;;7.20;2.95;;;;;;;17.43;58.51;98381.53;4964089;28;20034;-68
2023/04/16 03:54:14;;;;;;;15.55;2.70;;;;;;;17.43;58.83;98379.72;4996515;28;20069;-68
2023/04/16 03:56:40;;;;;;;11.05;2.47;;;;;;;17.49;58.88;98383.47;4980555;28;20029;-68
2023/04/16 03:59:06;;;;;;;7.70;2.67;;;;;;;17.49;58.91;98383.47;4979819;28;20049;-68
2023/04/16 04:01:31;;;;;;;7.65;2.75;;;;;;;17.49;58.70;98394.88;4995696;28;20041;-68
2023/04/16 04:03:57;;;;;;;7.15;2.65;;;;;;;17.49;58.69;98389.59;4963650;28;20061;-69
2023/04/16 04:06:22;;;;;;;10.70;2.95;;;;;;;17.49;58.46;98389.59;4962863;28;20057;-69
2023/04/16 04:08:48;;;;;;;12.55;2.90;;;;;;;17.49;58.74;98389.59;4994035;28;20053;-69
2023/04/16 04:11:13;;;;;;;9.27;2.60;;;;;;;17.51;58.56;98392.06;4994397;28;20062;-69
2023/04/16 04:13:39;;;;;;;7.97;2.58;;;;;;;17.50;58.25;98383.31;4978026;28;20042;-69
2023/04/16 04:16:05;;;;;;;9.10;2.65;;;;;;;17.51;58.33;98392.06;4978428;28;20422;-69
2023/04/16 04:18:30;;;;;;;9.00;2.33;;;;;;;17.49;58.10;98379.03;4977579;28;20228;-70
2023/04/16 04:20:56;;;;;;;8.73;2.53;;;;;;;17.56;58.39;98388.91;4977335;28;20124;-69
2023/04/16 04:23:22;;;;;;;6.95;2.70;;;;;;;17.57;58.58;98387.91;5003551;28;20041;-69
2023/04/16 04:25:48;;;;;;;7.13;2.50;;;;;;;17.60;58.91;98390.22;5032614;28;20091;-69
2023/04/16 04:28:13;;;;;;;12.63;3.05;;;;;;;17.62;59.34;98390.88;5001060;28;20041;-69
2023/04/16 04:30:39;;;;;;;10.70;2.55;;;;;;;17.67;59.04;98391.19;5016742;28;20507;-69
2023/04/16 04:33:05;;;;;;;10.23;2.97;;;;;;;17.73;59.75;98391.31;5001132;28;20040;-69
2023/04/16 04:35:30;;;;;;;9.40;2.97;;;;;;;17.81;59.70;98398.38;4992921;28;20038;-70
2023/04/16 04:37:56;;;;;;;13.35;3.10;;;;;;;17.81;59.57;98389.66;4993353;28;20045;-69
2023/04/16 04:40:21;;;;;;;11.45;3.30;;;;;;;17.92;59.33;98399.00;4994409;28;20040;-69
2023/04/16 04:42:47;;;;;;;11.88;2.92;;;;;;;17.99;59.71;98398.16;4993903;28;20029;-68
2023/04/16 04:45:12;;;;;;;9.23;3.03;;;;;;;18.04;59.05;98387.06;5011018;28;20042;-70
2023/04/16 04:47:38;;;;;;;9.70;2.88;;;;;;;18.10;58.40;98396.13;4977912;28;20025;-68
2023/04/16 04:50:03;;;;;;;13.98;2.88;;;;;;;18.08;57.69;98394.47;4977109;28;20497;-68
2023/04/16 04:52:29;;;;;;;12.07;3.00;;;;;;;18.10;56.95;98404.88;5004844;28;20466;-68
2023/04/16 04:54:55;;;;;;;10.30;3.10;;;;;;;18.12;56.68;98402.88;5032838;28;20045;-69
2023/04/16 04:57:21;;;;;;;11.18;2.83;;;;;;;18.12;56.32;98407.34;5050654;28;20071;-69
2023/04/16 04:59:46;;;;;;;7.95;2.78;;;;;;;18.12;55.94;98405.50;4999587;28;20036;-68
2023/04/16 05:02:12;;;;;;;8.43;2.60;;;;;;;18.12;55.54;98404.69;5016678;28;20106;-68
2023/04/16 05:04:37;;;;;;;10.25;3.22;;;;;;;18.12;55.42;98404.69;5015685;28;20132;-70
2023/04/16 05:07:03;;;;;;;9.05;3.38;;;;;;;18.10;55.16;98407.50;5033571;28;20040;-69
2023/04/16 05:09:28;;;;;;;13.30;3.20;;;;;;;18.05;54.96;98404.56;5033040;28;20048;-68
2023/04/16 05:11:54;;;;;;;14.75;3.05;;;;;;;18.05;54.83;98412.50;5000310;28;20029;-68
2023/04/16 05:14:19;;;;;;;7.15;2.72;;;;;;;18.04;54.54;98406.41;5015715;28;20488;-68
2023/04/16 05:16:45;;;;;;;9.15;2.67;;;;;;;18.06;54.29;98412.31;5016218;28;20033;-68
2023/04/16 05:19:10;;;;;;;7.43;2.95;;;;;;;18.05;54.35;98405.38;5015973;28;20495;-68
2023/04/16 05:21:36;;;;;;;9.63;2.85;;;;;;;18.11;54.31;98413.63;4999848;28;20120;-68
2023/04/16 05:24:01;;;;;;;11.93;3.08;;;;;;;18.08;53.78;98409.50;4998117;28;20481;-67
2023/04/16 05:26:27;;;;;;;11.07;3.00;;;;;;;18.11;54.03;98409.16;4997126;28;20037;-67
2023/04/16 05:28:52;;;;;;;12.45;3.08;;;;;;;18.12;53.99;98408.16;4996223;28;20416;-68
2023/04/16 05:31:18;;;;;;;9.57;3.25;;;;;;;18.16;53.63;98411.28;5030602;28;20026;-68
2023/04/16 05:33:43;;;;;;;12.00;3.28;;;;;;;18.16;53.67;98411.28;5012307;28;20033;-70
2023/04/16 05:36:09;;;;;;;12.30;3.28;;;;;;;18.21;53.46;98415.03;4980501;28;20115;-69
2023/04/16 05:38:34;;;;;;;9.60;3.45;;;;;;;18.21;53.51;98420.31;4996869;28;20072;-70
2023/04/16 05:41:00;;;;;;;10.82;3.22;;;;;;;18.20;53.52;98413.41;4996499;28;20463;-69
2023/04/16 05:43:25;;;;;;;10.25;3.45;;;;;;;18.13;53.73;98417.72;4996663;28;20029;-68
2023/04/16 05:45:51;;;;;;;8.90;2.63;;;;;;;18.14;53.67;98421.19;4996176;28;20463;-67
2023/04/16 05:48:16;;;;;;;9.48;3.40;;;;;;;18.13;53.73;98419.56;5012701;28;20029;-68
2023/04/16 05:50:42;;;;;;;13.20;3.78;;;;;;;18.06;53.88;98409.69;4996162;28;20436;-68
2023/04/16 05:53:08;;;;;;;11.32;3.80;;;;;;;18.07;54.08;98418.41;5003214;28;20441;-69
2023/04/16 05:55:35;;;;;;;9.70;3.85;;;;;;;18.02;54.03;98404.91;5012434;28;20045;-70
2023/04/16 05:58:03;;;;;;;8.80;3.40;;;;;;;18.04;55.25;98410.84;4997103;28;20116;-70
2023/04/16 06:00:29;;;;;;;16.27;3.13;;;;;;;18.31;61.21;98411.34;5030525;28;20053;-72
2023/04/16 06:02:54;;;;;;;14.70;3.10;;;;;;;18.30;60.42;98410.53;5011797;28;20295;-68
2023/04/16 06:05:20;;;;;;;16.52;2.88;;;;;;;18.29;60.11;98414.19;4995237;28;20053;-69
2023/04/16 06:07:45;;;;;;;10.27;3.08;;;;;;;18.28;59.65;98412.56;5012295;28;20144;-72
2023/04/16 06:10:11;;;;;;;8.68;3.40;;;;;;;18.24;59.35;98413.88;5012836;28;20053;-67
2023/04/16 06:12:36;;;;;;;8.13;3.20;;;;;;;18.26;59.16;98415.38;4995971;28;20088;-71
2023/04/16 06:15:02;;;;;;;8.88;3.03;;;;;;;18.24;58.79;98413.88;5012324;28;20453;-69
2023/04/16 06:17:28;;;;;;;9.85;3.70;;;;;;;18.15;58.96;98415.72;4979053;28;20050;-66
2023/04/16 06:19:53;;;;;;;8.20;3.50;;;;;;;18.19;58.77;98417.03;4996108;28;20080;-67
2023/04/16 06:22:19;;;;;;;9.75;3.92;;;;;;;18.16;58.79;98417.38;4999468;28;20041;-69
2023/04/16 06:24:44;;;;;;;8.02;3.15;;;;;;;18.11;58.80;98403.88;5032825;28;20040;-75
2023/04/16 06:27:10;;;;;;;7.68;2.80;;;;;;;18.16;61.71;98416.56;5019470;28;20025;-74
2023/04/16 06:29:35;;;;;;;11.55;3.10;;;;;;;18.22;61.58;98432.53;5017882;28;20099;-71
2023/04/16 06:32:02;;;;;;;8.85;3.20;;;;;;;18.33;62.20;98426.06;5053714;28;20025;-74
2023/04/16 06:34:27;;;;;;;9.18;3.25;;;;;;;18.47;62.51;98423.63;5031840;28;20069;-71
2023/04/16 06:36:53;;;;;;;10.95;3.20;;;;;;;18.67;62.36;98424.00;4979699;28;20073;-69
2023/04/16 06:39:20;;;;;;;18.17;3.15;;;;;;;18.92;62.48;98422.03;4999395;28;20029;-71
2023/04/16 06:41:46;;;;;;;14.00;3.20;;;;;;;19.16;61.93;98423.63;4979337;28;20046;-69
2023/04/16 06:44:12;;;;;;;11.75;3.22;;;;;;;19.41;61.60;98426.03;4995803;28;20119;-68
2023/04/16 06:46:37;;;;;;;7.45;2.30;;;;;;;19.59;61.16;98426.47;5013285;28;20497;-71
2023/04/16 06:49:03;;;;;;;5.90;2.33;;;;;;;19.76;60.86;98427.16;4995020;28;20140;-67
2023/04/16 06:51:29;;;;;;;17.52;2.78;;;;;;;19.91;60.55;98424.50;5015482;28;20483;-71
2023/04/16 06:53:54;;;;;;;18.27;3.00;;;;;;;20.11;60.15;98419.44;5031647;28;20036;-72
2023/04/16 06:56:20;;;;;;;13.82;3.22;;;;;;;20.30;60.01;98414.56;5017694;28;20041;-67
2023/04/16 06:58:45;;;;;;;11.00;2.75;;;;;;;20.51;59.90;98421.69;5017886;28;20068;-70
2023/04/16 07:01:11;;;;;;;17.95;2.60;;;;;;;20.68;59.60;98420.47;5052624;28;20064;-67
2023/04/16 07:03:36;;;;;;;11.45;3.00;;;;;;;20.86;58.75;98419.19;5052089;28;20091;-68
2023/04/16 07:06:02;;;;;;;7.53;2.78;;;;;;;21.00;58.08;98413.00;5018159;28;20122;-68
2023/04/16 07:08:27;;;;;;;12.07;2.60;;;;;;;21.15;57.92;98415.56;5018629;28;20029;-69
2023/04/16 07:10:53;;;;;;;10.52;2.60;;;;;;;21.29;57.25;98416.47;5016745;28;20041;-68
2023/04/16 07:13:19;;;;;;;7.63;2.72;;;;;;;21.44;56.89;98417.19;5018739;28;20029;-68
2023/04/16 07:15:44;;;;;;;10.32;3.05;;;;;;;22.23;54.90;98415.09;5034547;28;20515;-69
2023/04/16 07:18:10;;;;;;;7.43;2.90;;;;;;;22.54;54.38;98419.91;5017908;28;20036;-72
2023/04/16 07:20:35;;;;;;;12.60;2.85;;;;;;;22.66;54.37;98424.63;5017691;28;20045;-75
2023/04/16 07:23:01;;;;;;;10.10;2.85;;;;;;;22.87;53.77;98421.78;5024307;28;20037;-72
2023/04/16 07:25:26;;;;;;;9.90;3.10;;;;;;;23.00;52.86;98409.53;5014476;28;20138;-73
2023/04/16 07:27:52;;;;;;;6.88;2.85;;;;;;;23.30;52.19;98424.06;5014179;28;20107;-71
2023/04/16 07:30:17;;;;;;;8.00;3.03;;;;;;;23.58;51.76;98438.16;5014738;28;20041;-73
2023/04/16 07:32:43;;;;;;;9.30;2.83;;;;;;;23.91;51.03;98435.44;5014000;28;20555;-75
2023/04/16 07:35:08;;;;;;;9.18;2.58;;;;;;;24.37;50.06;98431.72;4982183;28;20160;-72
2023/04/16 07:37:34;;;;;;;15.85;2.88;;;;;;;24.84;48.98;98426.13;4980836;28;20064;-75
2023/04/16 07:40:00;;;;;;;10.02;2.40;;;;;;;25.32;48.54;98427.38;4998008;28;20036;-75
2023/04/16 07:42:26;;;;;;;10.65;2.95;;;;;;;25.74;47.83;98427.53;5014647;28;20103;-73
2023/04/16 07:44:52;;;;;;;5.10;2.47;;;;;;;25.67;47.92;98424.16;4998183;28;20033;-73
2023/04/16 07:47:17;;;;;;;7.13;2.65;;;;;;;25.54;48.09;98433.13;4981380;28;20064;-73
2023/04/16 07:49:43;;;;;;;8.00;2.83;;;;;;;25.34;48.66;98409.28;5031439;28;20037;-74
2023/04/16 07:52:08;;;;;;;11.70;4.00;;;;;;;25.21;48.90;98422.75;5000778;28;20045;-78
2023/04/16 07:54:34;;;;;;;10.48;3.10;;;;;;;25.01;49.20;98414.88;5017660;28;20032;-80
2023/04/16 07:57:00;;;;;;;11.27;3.42;;;;;;;24.87;49.12;98401.63;5010310;28;20538;-76
2023/04/16 07:59:26;;;;;;;6.88;2.95;;;;;;;24.77;49.67;98405.84;4971249;28;20091;-75
2023/04/16 08:01:51;;;;;;;11.65;3.38;;;;;;;24.67;49.63;98399.13;5013349;28;20411;-73
2023/04/16 08:04:23;;;;;;;8.57;3.17;;;;;;;24.62;49.54;98406.97;4981489;28;20136;-74
2023/04/16 08:06:49;;;;;;;11.75;3.20;;;;;;;24.60;49.68;98401.03;5014502;28;20057;-78
2023/04/16 08:09:14;;;;;;;6.65;3.00;;;;;;;24.60;49.46;98397.56;4980758;28;20045;-74
2023/04/16 08:11:40;;;;;;;8.20;2.72;;;;;;;24.72;49.11;98401.16;5031897;28;20041;-81
2023/04/16 08:14:05;;;;;;;10.25;3.03;;;;;;;24.95;48.76;98397.06;4997490;28;20091;-75
2023/04/16 08:16:31;;;;;;;5.38;2.75;;;;;;;25.07;48.25;98401.47;4980435;28;20570;-71
2023/04/16 08:18:57;;;;;;;8.23;3.20;;;;;;;25.07;48.57;98404.16;5013819;28;20120;-71
2023/04/16 08:21:22;;;;;;;7.18;2.70;;;;;;;25.25;47.80;98402.53;4992128;28;20108;-76
2023/04/16 08:23:48;;;;;;;13.95;4.35;;;;;;;25.24;47.23;98395.59;4981728;28;20477;-68
2023/04/16 08:26:13;;;;;;;11.48;4.40;;;;;;;25.10;46.86;98390.34;4997928;28;20032;-70
2023/04/16 08:28:39;;;;;;;19.58;4.50;;;;;;;25.04;47.23;98398.44;5014443;28;20029;-70
2023/04/16 08:31:04;;;;;;;12.50;4.43;;;;;;;24.88;47.04;98395.28;4997769;28;20063;-67
2023/04/16 08:33:30;;;;;;;13.43;4.70;;;;;;;24.76;48.06;98396.19;5014328;28;20064;-69
2023/04/16 08:35:55;;;;;;;12.00;4.47;;;;;;;24.62;48.09;98393.66;4970706;28;20033;-70
2023/04/16 08:38:21;;;;;;;16.95;4.80;;;;;;;24.68;47.58;98395.41;4977812;28;20073;-70
2023/04/16 08:40:46;;;;;;;12.85;4.90;;;;;;;24.70;47.35;98398.72;5029353;28;20042;-69
2023/04/16 08:43:12;;;;;;;13.57;4.63;;;;;;;24.69;47.15;98401.59;4997446;28;20026;-73
2023/04/16 08:45:38;;;;;;;14.70;5.20;;;;;;;24.67;47.04;98383.13;4981793;28;20457;-72
2023/04/16 08:48:04;;;;;;;16.05;5.45;;;;;;;24.69;48.17;98386.38;4980973;28;20118;-73
2023/04/16 08:50:29;;;;;;;19.10;5.90;;;;;;;24.82;48.89;98396.13;4997941;28;20400;-72
2023/04/16 08:52:59;;;;;;;14.50;5.93;;;;;;;25.39;48.90;98385.38;5013932;28;20029;-70
2023/04/16 08:55:48;;;;;;;19.48;5.72;;;;;;;25.23;50.39;98385.94;4998134;28;20033;-74
2023/04/16 08:58:14;;;;;;;11.65;5.35;;;;;;;25.16;49.17;98385.16;5013339;28;20104;-75
2023/04/16 09:00:40;;;;;;;18.23;6.13;;;;;;;25.05;48.43;98381.38;5014667;28;20022;-73
2023/04/16 09:03:07;;;;;;;13.15;5.50;;;;;;;25.01;48.36;98377.50;4980866;28;20034;-71
2023/04/16 09:05:32;;;;;;;22.42;13.45;;;;;;;25.10;50.03;98387.69;4996906;28;20053;-68
2023/04/16 09:07:58;;;;;;;22.38;8.15;;;;;;;25.16;48.73;98383.34;5031143;28;20037;-70
2023/04/16 09:10:25;;;;;;;16.30;6.65;;;;;;;25.34;48.11;98377.22;4997231;28;20052;-71
2023/04/16 09:12:50;;;;;;;20.20;6.63;;;;;;;25.44;47.82;98376.69;4980820;28;20064;-72
2023/04/16 09:15:16;;;;;;;18.83;6.15;;;;;;;25.46;46.92;98369.28;4980693;28;20091;-72
2023/04/16 09:17:41;;;;;;;12.43;5.53;;;;;;;25.50;46.69;98373.13;4997272;28;20018;-74
2023/04/16 09:20:07;;;;;;;18.58;5.57;;;;;;;25.57;46.45;98370.38;4996714;28;20106;-70
2023/04/16 09:22:36;;;;;;;15.85;4.97;;;;;;;25.66;46.29;98365.56;5013904;28;20408;-69
2023/04/16 09:25:02;;;;;;;16.20;5.38;;;;;;;25.62;45.86;98370.56;4996919;28;20042;-73
2023/04/16 09:27:28;;;;;;;10.00;4.68;;;;;;;25.66;45.69;98371.72;4981271;28;20091;-81
2023/04/16 09:29:54;;;;;;;15.52;4.88;;;;;;;25.69;45.45;98375.81;4981744;28;20033;-76
2023/04/16 09:32:24;;;;;;;13.43;5.30;;;;;;;25.67;45.85;98364.53;5031995;28;20033;-72
2023/04/16 09:34:52;;;;;;;11.18;4.70;;;;;;;25.56;45.86;98361.56;5012498;28;20489;-75
2023/04/16 09:37:18;;;;;;;11.98;5.05;;;;;;;25.47;46.02;98354.88;5013433;28;20044;-78
2023/04/16 09:39:43;;;;;;;11.73;4.90;;;;;;;25.39;46.01;98361.31;5014316;28;20480;-77
2023/04/16 09:42:10;;;;;;;15.50;4.70;;;;;;;25.19;46.24;98355.34;4998488;28;20034;-76
2023/04/16 09:44:36;;;;;;;11.80;5.22;;;;;;;24.99;46.82;98363.56;5014835;28;20029;-71
2023/04/16 09:47:08;;;;;;;12.20;4.93;;;;;;;24.69;47.20;98353.56;4996830;28;20033;-72
2023/04/16 09:49:37;;;;;;;8.98;4.88;;;;;;;24.52;47.88;98358.56;4979914;28;20509;-70
2023/04/16 09:52:03;;;;;;;10.85;5.10;;;;;;;24.39;48.17;98348.81;5013492;28;20057;-79
2023/04/16 09:54:29;;;;;;;9.20;5.35;;;;;;;24.30;48.12;98352.78;4998021;28;20106;-86
2023/04/16 09:56:55;;;;;;;13.00;5.30;;;;;;;24.13;48.55;98344.47;4979270;28;20570;-75
2023/04/16 09:59:23;;;;;;;11.38;5.10;;;;;;;23.99;48.79;98347.22;5032502;28;20064;-75
2023/04/16 10:01:48;;;;;;;11.50;5.40;;;;;;;23.81;49.22;98347.06;5000599;28;20052;-77
2023/04/16 10:04:15;;;;;;;9.50;5.22;;;;;;;23.66;49.34;98358.81;5001710;28;20484;-78
2023/04/16 10:06:40;;;;;;;12.77;6.07;;;;;;;23.56;49.61;98352.28;5005519;28;20547;-81
2023/04/16 10:09:07;;;;;;;12.70;5.95;;;;;;;23.38;49.61;98358.28;4999399;28;20037;-83
2023/04/16 10:11:32;;;;;;;12.98;6.07;;;;;;;23.17;50.13;98356.72;4983787;28;20037;-79
2023/04/16 10:13:58;;;;;;;16.30;6.47;;;;;;;23.04;50.08;98354.84;5002504;28;20034;-79
2023/04/16 10:16:23;;;;;;;12.90;6.15;;;;;;;22.93;50.25;98356.31;5035299;28;20032;-79
2023/04/16 10:18:49;;;;;;;16.50;6.57;;;;;;;22.80;50.51;98357.09;5001172;28;20033;-81
2023/04/16 10:21:15;;;;;;;15.20;6.43;;;;;;;22.69;50.62;98347.91;5017688;28;20030;-81
2023/04/16 10:23:41;;;;;;;10.80;6.63;;;;;;;22.61;50.82;98340.13;5000451;28;20036;-82
2023/04/16 10:26:06;;;;;;;11.07;6.85;;;;;;;22.66;51.00;98344.81;5000918;28;20104;-82
2023/04/16 10:28:34;;;;;;;13.30;6.80;;;;;;;22.62;50.78;98344.44;5016753;28;20092;-81
2023/04/16 10:31:00;;;;;;;13.25;7.03;;;;;;;22.66;50.64;98347.50;5000513;28;20037;-81
2023/04/16 10:33:27;;;;;;;11.70;6.47;;;;;;;22.60;50.86;98343.81;5017166;28;20094;-81
2023/04/16 10:36:14;;;;;;;14.15;7.03;;;;;;;22.63;50.54;98359.38;5002038;28;20116;-82
2023/04/16 10:38:47;;;;;;;14.00;7.30;;;;;;;22.68;50.26;98346.28;4964838;28;20040;-81
2023/04/16 10:41:12;;;;;;;11.40;6.63;;;;;;;22.76;50.37;98353.22;4980715;28;20045;-79
2023/04/16 10:43:40;;;;;;;12.75;7.10;;;;;;;22.87;49.81;98351.81;4981174;28;20025;-77
2023/04/16 10:46:21;;;;;;;13.48;6.63;;;;;;;22.99;49.52;98355.44;4981473;28;20117;-81
2023/04/16 10:48:48;;;;;;;12.90;6.93;;;;;;;23.16;49.03;98360.38;4997224;28;20038;-80
2023/04/16 10:51:30;;;;;;;12.25;6.65;;;;;;;23.46;47.89;98366.84;4964984;28;20029;-80
2023/04/16 10:54:02;;;;;;;13.55;6.72;;;;;;;23.75;47.21;98358.56;4965010;28;20028;-78
2023/04/16 10:56:30;;;;;;;15.15;6.22;;;;;;;23.94;46.79;98356.88;4996788;28;20091;-81
2023/04/16 10:58:55;;;;;;;12.07;6.55;;;;;;;24.15;46.21;98355.75;4965169;28;20025;-82
2023/04/16 11:01:32;;;;;;;13.82;6.32;;;;;;;24.28;45.98;98357.53;4964981;28;20046;-76
2023/04/16 11:04:00;;;;;;;14.38;6.15;;;;;;;24.50;45.31;98355.31;4996336;28;20040;-75
2023/04/16 11:06:26;;;;;;;9.52;6.10;;;;;;;24.78;44.53;98357.59;4995993;28;20054;-75
2023/04/16 11:08:52;;;;;;;14.38;6.50;;;;;;;24.95;43.86;98349.00;4980208;28;20026;-75
2023/04/16 11:11:18;;;;;;;11.40;6.15;;;;;;;25.18;43.00;98365.22;4978129;28;20101;-75
2023/04/16 11:13:46;;;;;;;13.02;6.47;;;;;;;25.24;42.67;98348.31;4980136;28;20088;-78
2023/04/16 11:16:13;;;;;;;11.95;6.22;;;;;;;25.26;42.71;98354.25;4964678;28;20085;-76
2023/04/16 11:18:41;;;;;;;11.85;6.60;;;;;;;25.18;42.26;98345.72;4979279;28;20052;-77
2023/04/16 11:21:10;;;;;;;14.90;6.65;;;;;;;25.00;42.59;98339.31;4979597;28;20133;-76
2023/04/16 11:23:49;;;;;;;12.10;6.78;;;;;;;24.87;43.19;98336.75;4979918;28;20113;-76